Hier das METAR für die 16 wichtigsten Deutschen Flughäfen.
(dauert ein wenig.... ich muss laden.....)

ODER
METAR nach ICAO Code suchen

Berlin - Schönefeld

EDDB

METAR
EDDB 201420Z 35007KT 320V020 9999 -SHRA VCTS SCT045CB 21/15 Q1000 TEMPO 13020G35KT 2000 TSRA BKN030CB
EDDBMETAR lang
Berlin-Schoenefeld, Germany (EDDB) 52-23N 013-31E 50M
May 20, 2019 - 10:20 AM EDT / 2019.05.20 1420 UTC
Wind: from the N (350 degrees) at 8 MPH (7 KT) (direction variable):0
Visibility: greater than 7 mile(s):0
Sky conditions: partly cloudy
Weather: light rain showers; thunder in the vicinity; Cumulonimbus clouds observed
Temperature: 69 F (21 C)
Dew Point: 59 F (15 C)
Relative Humidity: 68%
Pressure (altimeter): 29.53 in. Hg (1000 hPa)
ob: EDDB 201420Z 35007KT 320V020 9999 -SHRA VCTS SCT045CB 21/15 Q1000 TEMPO 13020G35KT 2000 TSRA BKN030CB
cycle: 14

Dresden

EDDC

METAR
EDDC 201420Z 04006KT 9999 -SHRA SCT008 16/14 Q1001 TEMPO SHRA BKN008
EDDCMETAR lang
Dresden-Klotzsche, Germany (EDDC) 51-08N 013-45E 232M
May 20, 2019 - 10:20 AM EDT / 2019.05.20 1420 UTC
Wind: from the NE (040 degrees) at 7 MPH (6 KT):0
Visibility: greater than 7 mile(s):0
Sky conditions: partly cloudy
Weather: light rain showers
Temperature: 60 F (16 C)
Dew Point: 57 F (14 C)
Relative Humidity: 87%
Pressure (altimeter): 29.56 in. Hg (1001 hPa)
ob: EDDC 201420Z 04006KT 9999 -SHRA SCT008 16/14 Q1001 TEMPO SHRA BKN008
cycle: 14

Erfurt

EDDE

METAR
EDDE 201420Z 12009KT 090V150 9999 -TSRA FEW023 BKN030CB 14/13 Q1002 RERA TEMPO 03020G35KT TSRA
EDDEMETAR lang
Erfurt-Bindersleben, Germany (EDDE) 50-59N 010-58E 322M
May 20, 2019 - 10:20 AM EDT / 2019.05.20 1420 UTC
Wind: from the ESE (120 degrees) at 10 MPH (9 KT) (direction variable):0
Visibility: greater than 7 mile(s):0
Sky conditions: mostly cloudy
Weather: light rain with thunder; Cumulonimbus clouds observed
Temperature: 57 F (14 C)
Dew Point: 55 F (13 C)
Relative Humidity: 93%
Pressure (altimeter): 29.59 in. Hg (1002 hPa)
ob: EDDE 201420Z 12009KT 090V150 9999 -TSRA FEW023 BKN030CB 14/13 Q1002 RERA TEMPO 03020G35KT TSRA
cycle: 14

Frankfurt a. Main

EDDF

METAR
EDDF 201420Z 29014KT 7000 -SHRA FEW005 FEW017CB 15/13 Q1005 RESHRA TEMPO SHRA
EDDFMETAR lang
Frankfurt / M-Flughafen, Germany (EDDF) 50-03N 008-36E 113M
May 20, 2019 - 10:20 AM EDT / 2019.05.20 1420 UTC
Wind: from the WNW (290 degrees) at 16 MPH (14 KT):0
Visibility: 4 mile(s):0
Sky conditions: mostly clear
Weather: light rain showers; Cumulonimbus clouds observed
Temperature: 59 F (15 C)
Dew Point: 55 F (13 C)
Relative Humidity: 87%
Pressure (altimeter): 29.68 in. Hg (1005 hPa)
ob: EDDF 201420Z 29014KT 7000 -SHRA FEW005 FEW017CB 15/13 Q1005 RESHRA TEMPO SHRA
cycle: 14

Münster Osnabrück

EDDG

METAR
EDDG 201420Z 28010KT 260V330 9000 BKN020 19/14 Q1006 NOSIG
EDDGMETAR lang
Muenster / Osnabrueck, Germany (EDDG) 52-08N 007-42E 53M
May 20, 2019 - 10:20 AM EDT / 2019.05.20 1420 UTC
Wind: from the W (280 degrees) at 12 MPH (10 KT) (direction variable):0
Visibility: 5 mile(s):0
Sky conditions: mostly cloudy
Temperature: 66 F (19 C)
Dew Point: 57 F (14 C)
Relative Humidity: 72%
Pressure (altimeter): 29.71 in. Hg (1006 hPa)
ob: EDDG 201420Z 28010KT 260V330 9000 BKN020 19/14 Q1006 NOSIG
cycle: 14

Hamburg

EDDH

METAR
EDDH 201420Z 04009KT 310V100 9999 FEW016 21/15 Q1005 NOSIG
EDDHMETAR lang
Hamburg-Fuhlsbuettel, Germany (EDDH) 53-38N 010-00E 15M
May 20, 2019 - 10:20 AM EDT / 2019.05.20 1420 UTC
Wind: from the NE (040 degrees) at 10 MPH (9 KT) (direction variable):0
Visibility: greater than 7 mile(s):0
Sky conditions: mostly clear
Temperature: 69 F (21 C)
Dew Point: 59 F (15 C)
Relative Humidity: 68%
Pressure (altimeter): 29.68 in. Hg (1005 hPa)
ob: EDDH 201420Z 04009KT 310V100 9999 FEW016 21/15 Q1005 NOSIG
cycle: 14

Köln - Bonn

EDDK

METAR
EDDK 201420Z 30011KT 9000 BKN014 14/11 Q1008 NOSIG
EDDKMETAR lang
Koeln / Bonn, Germany (EDDK) 50-52N 007-10E 100M
May 20, 2019 - 10:20 AM EDT / 2019.05.20 1420 UTC
Wind: from the WNW (300 degrees) at 13 MPH (11 KT):0
Visibility: 5 mile(s):0
Sky conditions: mostly cloudy
Temperature: 57 F (14 C)
Dew Point: 51 F (11 C)
Relative Humidity: 82%
Pressure (altimeter): 29.77 in. Hg (1008 hPa)
ob: EDDK 201420Z 30011KT 9000 BKN014 14/11 Q1008 NOSIG
cycle: 14

Düsseldorf

EDDL

METAR
EDDL 201420Z 28011KT 9999 FEW016 BKN020 OVC025 16/12 Q1007 NOSIG
EDDLMETAR lang
Duesseldorf, Germany (EDDL) 51-18N 006-46E 41M
May 20, 2019 - 10:20 AM EDT / 2019.05.20 1420 UTC
Wind: from the W (280 degrees) at 13 MPH (11 KT):0
Visibility: greater than 7 mile(s):0
Sky conditions: overcast
Temperature: 60 F (16 C)
Dew Point: 53 F (12 C)
Relative Humidity: 77%
Pressure (altimeter): 29.74 in. Hg (1007 hPa)
ob: EDDL 201420Z 28011KT 9999 FEW016 BKN020 OVC025 16/12 Q1007 NOSIG
cycle: 14

München

EDDM

METAR
EDDM 201420Z 26007KT 9999 -RA FEW015 SCT023 13/11 Q1002 NOSIG
EDDMMETAR lang
Munchen, Germany (EDDM) 48-21N 011-47E
May 20, 2019 - 10:20 AM EDT / 2019.05.20 1420 UTC
Wind: from the W (260 degrees) at 8 MPH (7 KT):0
Visibility: greater than 7 mile(s):0
Sky conditions: partly cloudy
Weather: light rain
Temperature: 55 F (13 C)
Dew Point: 51 F (11 C)
Relative Humidity: 87%
Pressure (altimeter): 29.59 in. Hg (1002 hPa)
ob: EDDM 201420Z 26007KT 9999 -RA FEW015 SCT023 13/11 Q1002 NOSIG
cycle: 14

Nürnberg

EDDN

METAR
EDDN 201420Z 27010KT 9999 -RA BKN016 17/14 Q1001 NOSIG
EDDNMETAR lang
Nuernberg, Germany (EDDN) 49-30N 011-03E 318M
May 20, 2019 - 10:20 AM EDT / 2019.05.20 1420 UTC
Wind: from the W (270 degrees) at 12 MPH (10 KT):0
Visibility: greater than 7 mile(s):0
Sky conditions: mostly cloudy
Weather: light rain
Temperature: 62 F (17 C)
Dew Point: 57 F (14 C)
Relative Humidity: 82%
Pressure (altimeter): 29.56 in. Hg (1001 hPa)
ob: EDDN 201420Z 27010KT 9999 -RA BKN016 17/14 Q1001 NOSIG
cycle: 14

Leipzig - Halle

EDDP

METAR
EDDP 201420Z 08006KT 9999 -RA FEW038CB 20/14 Q1001 TEMPO SHRA
EDDPMETAR lang
Leipzig-Schkeuditz, Germany (EDDP) 51-25N 012-14E 149M
May 20, 2019 - 10:20 AM EDT / 2019.05.20 1420 UTC
Wind: from the E (080 degrees) at 7 MPH (6 KT):0
Visibility: greater than 7 mile(s):0
Sky conditions: mostly clear
Weather: light rain; Cumulonimbus clouds observed
Temperature: 68 F (20 C)
Dew Point: 57 F (14 C)
Relative Humidity: 68%
Pressure (altimeter): 29.56 in. Hg (1001 hPa)
ob: EDDP 201420Z 08006KT 9999 -RA FEW038CB 20/14 Q1001 TEMPO SHRA
cycle: 14

Saarbrücken

EDDR

METAR
EDDR 201420Z 29007KT 9999 FEW028 SCT033TCU 18/11 Q1006 TEMPO 31015G30KT TSRA BKN030CB
EDDRMETAR lang
Saarbruecken / Ensheim, Germany (EDDR) 49-13N 007-07E 320M
May 20, 2019 - 10:20 AM EDT / 2019.05.20 1420 UTC
Wind: from the WNW (290 degrees) at 8 MPH (7 KT):0
Visibility: greater than 7 mile(s):0
Sky conditions: partly cloudy
Weather: Cumulonimbus clouds, towering cumulus clouds observed
Temperature: 64 F (18 C)
Dew Point: 51 F (11 C)
Relative Humidity: 63%
Pressure (altimeter): 29.71 in. Hg (1006 hPa)
ob: EDDR 201420Z 29007KT 9999 FEW028 SCT033TCU 18/11 Q1006 TEMPO 31015G30KT TSRA BKN030CB
cycle: 14

Stuttgart

EDDS

METAR
EDDS 201420Z 29009KT 250V320 9999 -RA FEW011 BKN015 15/13 Q1005 TEMPO BKN014
EDDSMETAR lang
Stuttgart-Echterdingen, Germany (EDDS) 48-41N 009-13E 391M
May 20, 2019 - 10:20 AM EDT / 2019.05.20 1420 UTC
Wind: from the WNW (290 degrees) at 10 MPH (9 KT) (direction variable):0
Visibility: greater than 7 mile(s):0
Sky conditions: mostly cloudy
Weather: light rain
Temperature: 59 F (15 C)
Dew Point: 55 F (13 C)
Relative Humidity: 87%
Pressure (altimeter): 29.68 in. Hg (1005 hPa)
ob: EDDS 201420Z 29009KT 250V320 9999 -RA FEW011 BKN015 15/13 Q1005 TEMPO BKN014
cycle: 14

Berlin - Tegel

EDDT

METAR
EDDT 201420Z 03008KT 350V060 CAVOK 23/13 Q1000 TEMPO 13020G35KT 2000 TSRA BKN030CB
EDDTMETAR lang
Berlin-Tegel, Germany (EDDT) 52-34N 013-19E 37M
May 20, 2019 - 10:20 AM EDT / 2019.05.20 1420 UTC
Wind: from the NNE (030 degrees) at 9 MPH (8 KT) (direction variable):0
Visibility: greater than 7 mile(s):0
Weather: Cumulonimbus clouds observed
Temperature: 73 F (23 C)
Dew Point: 55 F (13 C)
Relative Humidity: 53%
Pressure (altimeter): 29.53 in. Hg (1000 hPa)
ob: EDDT 201420Z 03008KT 350V060 CAVOK 23/13 Q1000 TEMPO 13020G35KT 2000 TSRA BKN030CB
cycle: 14

Hannover

EDDV

METAR
EDDV 201420Z 30008KT 9999 -TSRA SCT040CB 22/16 Q1003 TEMPO TSRA SCT020CB
EDDVMETAR lang
Hannover, Germany (EDDV) 52-28N 009-41E 59M
May 20, 2019 - 10:20 AM EDT / 2019.05.20 1420 UTC
Wind: from the WNW (300 degrees) at 9 MPH (8 KT):0
Visibility: greater than 7 mile(s):0
Sky conditions: partly cloudy
Weather: light rain with thunder; Cumulonimbus clouds observed
Temperature: 71 F (22 C)
Dew Point: 60 F (16 C)
Relative Humidity: 68%
Pressure (altimeter): 29.62 in. Hg (1003 hPa)
ob: EDDV 201420Z 30008KT 9999 -TSRA SCT040CB 22/16 Q1003 TEMPO TSRA SCT020CB
cycle: 14

Bremen

EDDW

METAR
EDDW 201420Z 36010KT 330V040 9999 FEW040 24/13 Q1004 NOSIG
EDDWMETAR lang
Bremen, Germany (EDDW) 53-03N 008-48E 5M
May 20, 2019 - 10:20 AM EDT / 2019.05.20 1420 UTC
Wind: from the N (360 degrees) at 12 MPH (10 KT) (direction variable):0
Visibility: greater than 7 mile(s):0
Sky conditions: mostly clear
Temperature: 75 F (24 C)
Dew Point: 55 F (13 C)
Relative Humidity: 50%
Pressure (altimeter): 29.65 in. Hg (1004 hPa)
ob: EDDW 201420Z 36010KT 330V040 9999 FEW040 24/13 Q1004 NOSIG
cycle: 14